sensor_id;sensor_type;location;lat;lon;timestamp;P1;durP1;ratioP1;P2;durP2;ratioP2
73697;SDS011;62004;42.566;23.164;2023-03-08T00:00:23;177.53;;;32.23;;
73697;SDS011;62004;42.566;23.164;2023-03-08T00:02:48;183.27;;;34.33;;
73697;SDS011;62004;42.566;23.164;2023-03-08T00:05:14;177.20;;;32.73;;
73697;SDS011;62004;42.566;23.164;2023-03-08T00:07:39;181.77;;;35.87;;
73697;SDS011;62004;42.566;23.164;2023-03-08T00:10:04;178.57;;;33.10;;
73697;SDS011;62004;42.566;23.164;2023-03-08T00:12:30;179.07;;;33.63;;
73697;SDS011;62004;42.566;23.164;2023-03-08T00:14:55;177.63;;;31.50;;
73697;SDS011;62004;42.566;23.164;2023-03-08T00:17:20;178.97;;;34.20;;
73697;SDS011;62004;42.566;23.164;2023-03-08T00:19:46;182.45;;;33.30;;
73697;SDS011;62004;42.566;23.164;2023-03-08T00:22:11;178.47;;;33.50;;
73697;SDS011;62004;42.566;23.164;2023-03-08T00:24:36;181.27;;;35.20;;
73697;SDS011;62004;42.566;23.164;2023-03-08T00:27:02;178.77;;;33.15;;
73697;SDS011;62004;42.566;23.164;2023-03-08T00:29:27;178.63;;;34.20;;
73697;SDS011;62004;42.566;23.164;2023-03-08T00:31:52;177.73;;;33.30;;
73697;SDS011;62004;42.566;23.164;2023-03-08T00:34:18;175.97;;;31.67;;
73697;SDS011;62004;42.566;23.164;2023-03-08T00:36:43;176.23;;;33.63;;
73697;SDS011;62004;42.566;23.164;2023-03-08T00:39:09;176.60;;;32.83;;
73697;SDS011;62004;42.566;23.164;2023-03-08T00:41:35;179.18;;;34.38;;
73697;SDS011;62004;42.566;23.164;2023-03-08T00:44:00;178.55;;;33.70;;
73697;SDS011;62004;42.566;23.164;2023-03-08T00:46:25;176.33;;;33.33;;
73697;SDS011;62004;42.566;23.164;2023-03-08T00:48:51;175.47;;;33.10;;
73697;SDS011;62004;42.566;23.164;2023-03-08T00:51:17;176.90;;;34.75;;
73697;SDS011;62004;42.566;23.164;2023-03-08T00:53:43;184.10;;;33.63;;
73697;SDS011;62004;42.566;23.164;2023-03-08T00:56:08;177.60;;;33.97;;
73697;SDS011;62004;42.566;23.164;2023-03-08T00:58:35;175.33;;;34.07;;
73697;SDS011;62004;42.566;23.164;2023-03-08T01:01:00;176.18;;;33.72;;
73697;SDS011;62004;42.566;23.164;2023-03-08T01:03:25;174.37;;;31.97;;
73697;SDS011;62004;42.566;23.164;2023-03-08T01:05:52;174.57;;;32.63;;
73697;SDS011;62004;42.566;23.164;2023-03-08T01:08:18;176.05;;;33.13;;
73697;SDS011;62004;42.566;23.164;2023-03-08T01:10:50;176.90;;;34.47;;
73697;SDS011;62004;42.566;23.164;2023-03-08T01:13:16;182.30;;;34.85;;
73697;SDS011;62004;42.566;23.164;2023-03-08T01:15:42;177.05;;;34.60;;
73697;SDS011;62004;42.566;23.164;2023-03-08T01:18:07;175.70;;;33.17;;
73697;SDS011;62004;42.566;23.164;2023-03-08T01:20:32;181.43;;;35.17;;
73697;SDS011;62004;42.566;23.164;2023-03-08T01:22:58;175.07;;;33.87;;
73697;SDS011;62004;42.566;23.164;2023-03-08T01:25:23;175.03;;;34.40;;
73697;SDS011;62004;42.566;23.164;2023-03-08T01:27:48;177.47;;;37.20;;
73697;SDS011;62004;42.566;23.164;2023-03-08T01:30:13;174.23;;;33.80;;
73697;SDS011;62004;42.566;23.164;2023-03-08T01:32:39;176.75;;;34.53;;
73697;SDS011;62004;42.566;23.164;2023-03-08T01:35:04;174.40;;;33.67;;
73697;SDS011;62004;42.566;23.164;2023-03-08T01:37:30;180.25;;;33.40;;
73697;SDS011;62004;42.566;23.164;2023-03-08T01:39:55;177.98;;;33.47;;
73697;SDS011;62004;42.566;23.164;2023-03-08T01:42:21;174.57;;;33.90;;
73697;SDS011;62004;42.566;23.164;2023-03-08T01:44:56;175.27;;;34.47;;
73697;SDS011;62004;42.566;23.164;2023-03-08T01:47:29;173.38;;;32.05;;
73697;SDS011;62004;42.566;23.164;2023-03-08T01:49:56;173.35;;;33.38;;
73697;SDS011;62004;42.566;23.164;2023-03-08T01:52:36;176.90;;;34.17;;
73697;SDS011;62004;42.566;23.164;2023-03-08T01:55:05;174.25;;;33.88;;
73697;SDS011;62004;42.566;23.164;2023-03-08T02:00:10;173.85;;;33.90;;
73697;SDS011;62004;42.566;23.164;2023-03-08T02:02:39;176.93;;;33.63;;
73697;SDS011;62004;42.566;23.164;2023-03-08T02:05:05;175.80;;;33.53;;
73697;SDS011;62004;42.566;23.164;2023-03-08T02:07:30;177.27;;;34.53;;
73697;SDS011;62004;42.566;23.164;2023-03-08T02:09:56;173.07;;;32.70;;
73697;SDS011;62004;42.566;23.164;2023-03-08T02:12:21;173.55;;;33.53;;
73697;SDS011;62004;42.566;23.164;2023-03-08T02:14:47;175.00;;;36.13;;
73697;SDS011;62004;42.566;23.164;2023-03-08T02:17:12;173.27;;;35.67;;
73697;SDS011;62004;42.566;23.164;2023-03-08T02:19:43;185.10;;;35.70;;
73697;SDS011;62004;42.566;23.164;2023-03-08T02:22:10;176.32;;;35.53;;
73697;SDS011;62004;42.566;23.164;2023-03-08T02:24:35;173.73;;;34.35;;
73697;SDS011;62004;42.566;23.164;2023-03-08T02:27:03;177.77;;;36.97;;
73697;SDS011;62004;42.566;23.164;2023-03-08T02:29:30;175.68;;;35.05;;
73697;SDS011;62004;42.566;23.164;2023-03-08T02:31:55;172.80;;;33.83;;
73697;SDS011;62004;42.566;23.164;2023-03-08T02:34:20;173.80;;;34.47;;
73697;SDS011;62004;42.566;23.164;2023-03-08T02:36:46;182.70;;;34.73;;
73697;SDS011;62004;42.566;23.164;2023-03-08T02:39:11;175.07;;;35.43;;
73697;SDS011;62004;42.566;23.164;2023-03-08T02:41:36;175.40;;;35.80;;
73697;SDS011;62004;42.566;23.164;2023-03-08T02:44:01;173.17;;;34.37;;
73697;SDS011;62004;42.566;23.164;2023-03-08T02:46:27;172.60;;;34.23;;
73697;SDS011;62004;42.566;23.164;2023-03-08T02:48:52;179.77;;;34.20;;
73697;SDS011;62004;42.566;23.164;2023-03-08T02:51:18;175.23;;;35.80;;
73697;SDS011;62004;42.566;23.164;2023-03-08T02:53:44;176.43;;;34.22;;
73697;SDS011;62004;42.566;23.164;2023-03-08T02:56:09;174.13;;;33.83;;
73697;SDS011;62004;42.566;23.164;2023-03-08T02:58:34;172.60;;;33.43;;
73697;SDS011;62004;42.566;23.164;2023-03-08T03:01:00;175.07;;;33.47;;
73697;SDS011;62004;42.566;23.164;2023-03-08T03:03:25;174.73;;;35.70;;
73697;SDS011;62004;42.566;23.164;2023-03-08T03:05:50;172.90;;;33.88;;
73697;SDS011;62004;42.566;23.164;2023-03-08T03:08:16;173.00;;;33.37;;
73697;SDS011;62004;42.566;23.164;2023-03-08T03:10:41;171.93;;;33.00;;
73697;SDS011;62004;42.566;23.164;2023-03-08T03:13:06;191.68;;;32.35;;
73697;SDS011;62004;42.566;23.164;2023-03-08T03:15:32;173.30;;;33.55;;
73697;SDS011;62004;42.566;23.164;2023-03-08T03:17:58;175.25;;;34.25;;
73697;SDS011;62004;42.566;23.164;2023-03-08T03:20:24;174.95;;;35.00;;
73697;SDS011;62004;42.566;23.164;2023-03-08T03:22:49;172.68;;;33.28;;
73697;SDS011;62004;42.566;23.164;2023-03-08T03:25:14;182.33;;;35.17;;
73697;SDS011;62004;42.566;23.164;2023-03-08T03:27:40;174.40;;;35.37;;
73697;SDS011;62004;42.566;23.164;2023-03-08T03:30:05;172.83;;;34.17;;
73697;SDS011;62004;42.566;23.164;2023-03-08T03:32:31;174.98;;;32.42;;
73697;SDS011;62004;42.566;23.164;2023-03-08T03:34:56;180.03;;;35.13;;
73697;SDS011;62004;42.566;23.164;2023-03-08T03:37:22;174.73;;;34.50;;
73697;SDS011;62004;42.566;23.164;2023-03-08T03:39:47;172.73;;;34.83;;
73697;SDS011;62004;42.566;23.164;2023-03-08T03:42:12;175.20;;;35.20;;
73697;SDS011;62004;42.566;23.164;2023-03-08T03:44:37;176.63;;;32.77;;
73697;SDS011;62004;42.566;23.164;2023-03-08T03:47:03;172.23;;;33.03;;
73697;SDS011;62004;42.566;23.164;2023-03-08T03:49:28;171.25;;;32.92;;
73697;SDS011;62004;42.566;23.164;2023-03-08T03:51:53;173.25;;;33.85;;
73697;SDS011;62004;42.566;23.164;2023-03-08T03:54:19;175.70;;;34.53;;
73697;SDS011;62004;42.566;23.164;2023-03-08T03:56:44;172.17;;;34.70;;
73697;SDS011;62004;42.566;23.164;2023-03-08T03:59:09;176.63;;;34.17;;
73697;SDS011;62004;42.566;23.164;2023-03-08T04:01:35;173.67;;;34.87;;
73697;SDS011;62004;42.566;23.164;2023-03-08T04:04:00;175.27;;;34.63;;
73697;SDS011;62004;42.566;23.164;2023-03-08T04:06:26;172.33;;;33.17;;
73697;SDS011;62004;42.566;23.164;2023-03-08T04:08:56;170.95;;;33.35;;
73697;SDS011;62004;42.566;23.164;2023-03-08T04:11:24;171.48;;;33.80;;
73697;SDS011;62004;42.566;23.164;2023-03-08T04:13:49;172.45;;;34.85;;
73697;SDS011;62004;42.566;23.164;2023-03-08T04:16:18;170.63;;;33.50;;
73697;SDS011;62004;42.566;23.164;2023-03-08T04:18:44;172.48;;;34.42;;
73697;SDS011;62004;42.566;23.164;2023-03-08T04:21:09;173.37;;;34.17;;
73697;SDS011;62004;42.566;23.164;2023-03-08T04:23:35;175.30;;;35.00;;
73697;SDS011;62004;42.566;23.164;2023-03-08T04:26:00;179.07;;;33.60;;
73697;SDS011;62004;42.566;23.164;2023-03-08T04:28:26;172.90;;;33.42;;
73697;SDS011;62004;42.566;23.164;2023-03-08T04:30:51;173.73;;;37.38;;
73697;SDS011;62004;42.566;23.164;2023-03-08T04:33:17;171.03;;;33.93;;
73697;SDS011;62004;42.566;23.164;2023-03-08T04:35:42;172.57;;;34.97;;
73697;SDS011;62004;42.566;23.164;2023-03-08T04:38:07;172.40;;;34.03;;
73697;SDS011;62004;42.566;23.164;2023-03-08T04:40:32;169.87;;;31.93;;
73697;SDS011;62004;42.566;23.164;2023-03-08T04:43:18;172.40;;;33.83;;
73697;SDS011;62004;42.566;23.164;2023-03-08T04:45:43;174.03;;;34.07;;
73697;SDS011;62004;42.566;23.164;2023-03-08T04:48:08;172.27;;;35.07;;
73697;SDS011;62004;42.566;23.164;2023-03-08T04:50:33;173.13;;;36.40;;
73697;SDS011;62004;42.566;23.164;2023-03-08T04:52:59;172.40;;;33.13;;
73697;SDS011;62004;42.566;23.164;2023-03-08T04:55:24;172.73;;;35.87;;
73697;SDS011;62004;42.566;23.164;2023-03-08T04:57:49;172.53;;;34.47;;
73697;SDS011;62004;42.566;23.164;2023-03-08T05:00:14;169.93;;;32.60;;
73697;SDS011;62004;42.566;23.164;2023-03-08T05:02:40;180.02;;;34.00;;
73697;SDS011;62004;42.566;23.164;2023-03-08T05:05:05;170.97;;;33.70;;
73697;SDS011;62004;42.566;23.164;2023-03-08T05:07:30;173.43;;;34.13;;
73697;SDS011;62004;42.566;23.164;2023-03-08T05:09:56;179.40;;;34.07;;
73697;SDS011;62004;42.566;23.164;2023-03-08T05:12:21;171.93;;;34.47;;
73697;SDS011;62004;42.566;23.164;2023-03-08T05:14:46;178.23;;;32.97;;
73697;SDS011;62004;42.566;23.164;2023-03-08T05:17:11;173.53;;;32.40;;
73697;SDS011;62004;42.566;23.164;2023-03-08T05:19:37;171.93;;;33.63;;
73697;SDS011;62004;42.566;23.164;2023-03-08T05:22:02;172.93;;;32.20;;
73697;SDS011;62004;42.566;23.164;2023-03-08T05:24:29;172.13;;;31.17;;
73697;SDS011;62004;42.566;23.164;2023-03-08T05:26:54;172.65;;;30.73;;
73697;SDS011;62004;42.566;23.164;2023-03-08T05:29:20;172.83;;;31.47;;
73697;SDS011;62004;42.566;23.164;2023-03-08T05:31:45;175.27;;;33.17;;
73697;SDS011;62004;42.566;23.164;2023-03-08T05:34:10;173.90;;;33.27;;
73697;SDS011;62004;42.566;23.164;2023-03-08T05:36:36;173.10;;;30.13;;
73697;SDS011;62004;42.566;23.164;2023-03-08T05:39:01;176.50;;;32.33;;
73697;SDS011;62004;42.566;23.164;2023-03-08T05:41:27;173.13;;;30.08;;
73697;SDS011;62004;42.566;23.164;2023-03-08T05:43:52;173.40;;;31.83;;
73697;SDS011;62004;42.566;23.164;2023-03-08T05:46:17;173.77;;;31.10;;
73697;SDS011;62004;42.566;23.164;2023-03-08T05:48:43;175.65;;;34.33;;
73697;SDS011;62004;42.566;23.164;2023-03-08T05:51:10;176.68;;;32.83;;
73697;SDS011;62004;42.566;23.164;2023-03-08T05:53:36;174.77;;;31.65;;
73697;SDS011;62004;42.566;23.164;2023-03-08T05:56:09;176.85;;;35.50;;
73697;SDS011;62004;42.566;23.164;2023-03-08T05:58:35;174.88;;;33.80;;
73697;SDS011;62004;42.566;23.164;2023-03-08T06:01:07;174.23;;;32.70;;
73697;SDS011;62004;42.566;23.164;2023-03-08T06:03:32;175.25;;;32.20;;
73697;SDS011;62004;42.566;23.164;2023-03-08T06:05:57;182.33;;;33.00;;
73697;SDS011;62004;42.566;23.164;2023-03-08T06:08:22;173.33;;;30.23;;
73697;SDS011;62004;42.566;23.164;2023-03-08T06:10:48;180.07;;;31.90;;
73697;SDS011;62004;42.566;23.164;2023-03-08T06:13:13;179.03;;;32.13;;
73697;SDS011;62004;42.566;23.164;2023-03-08T06:15:38;177.83;;;32.20;;
73697;SDS011;62004;42.566;23.164;2023-03-08T06:18:04;179.73;;;32.30;;
73697;SDS011;62004;42.566;23.164;2023-03-08T06:20:29;180.25;;;35.35;;
73697;SDS011;62004;42.566;23.164;2023-03-08T06:22:54;177.93;;;30.97;;
73697;SDS011;62004;42.566;23.164;2023-03-08T06:25:20;179.50;;;33.87;;
73697;SDS011;62004;42.566;23.164;2023-03-08T06:27:45;179.20;;;30.70;;
73697;SDS011;62004;42.566;23.164;2023-03-08T06:30:10;185.60;;;34.57;;
73697;SDS011;62004;42.566;23.164;2023-03-08T06:32:35;180.85;;;32.15;;
73697;SDS011;62004;42.566;23.164;2023-03-08T06:35:01;179.75;;;31.00;;
73697;SDS011;62004;42.566;23.164;2023-03-08T06:37:30;180.50;;;31.20;;
73697;SDS011;62004;42.566;23.164;2023-03-08T06:39:55;181.63;;;32.50;;
73697;SDS011;62004;42.566;23.164;2023-03-08T06:42:21;192.13;;;38.93;;
73697;SDS011;62004;42.566;23.164;2023-03-08T06:44:46;205.73;;;38.20;;
73697;SDS011;62004;42.566;23.164;2023-03-08T06:47:11;218.23;;;40.50;;
73697;SDS011;62004;42.566;23.164;2023-03-08T06:49:36;222.97;;;37.37;;
73697;SDS011;62004;42.566;23.164;2023-03-08T06:52:02;232.67;;;37.07;;
73697;SDS011;62004;42.566;23.164;2023-03-08T06:54:27;361.73;;;68.65;;
73697;SDS011;62004;42.566;23.164;2023-03-08T06:56:52;575.40;;;125.60;;
73697;SDS011;62004;42.566;23.164;2023-03-08T06:59:18;553.63;;;133.03;;
73697;SDS011;62004;42.566;23.164;2023-03-08T07:01:43;228.37;;;35.93;;
73697;SDS011;62004;42.566;23.164;2023-03-08T07:04:08;222.93;;;33.93;;
73697;SDS011;62004;42.566;23.164;2023-03-08T07:06:33;217.83;;;34.53;;
73697;SDS011;62004;42.566;23.164;2023-03-08T07:08:59;215.10;;;33.87;;
73697;SDS011;62004;42.566;23.164;2023-03-08T07:11:24;214.47;;;33.90;;
73697;SDS011;62004;42.566;23.164;2023-03-08T07:13:51;211.40;;;33.78;;
73697;SDS011;62004;42.566;23.164;2023-03-08T07:16:16;213.33;;;34.67;;
73697;SDS011;62004;42.566;23.164;2023-03-08T07:18:41;212.93;;;36.33;;
73697;SDS011;62004;42.566;23.164;2023-03-08T07:21:06;211.07;;;35.90;;
73697;SDS011;62004;42.566;23.164;2023-03-08T07:23:32;210.20;;;34.83;;
73697;SDS011;62004;42.566;23.164;2023-03-08T07:25:57;210.80;;;34.90;;
73697;SDS011;62004;42.566;23.164;2023-03-08T07:28:22;209.47;;;33.97;;
73697;SDS011;62004;42.566;23.164;2023-03-08T07:30:49;207.70;;;34.03;;
73697;SDS011;62004;42.566;23.164;2023-03-08T07:33:14;206.35;;;33.28;;
73697;SDS011;62004;42.566;23.164;2023-03-08T07:35:40;206.73;;;32.42;;
73697;SDS011;62004;42.566;23.164;2023-03-08T07:38:05;209.13;;;34.10;;
73697;SDS011;62004;42.566;23.164;2023-03-08T07:40:31;208.38;;;32.97;;
73697;SDS011;62004;42.566;23.164;2023-03-08T07:42:56;211.82;;;35.70;;
73697;SDS011;62004;42.566;23.164;2023-03-08T07:45:22;215.33;;;35.43;;
73697;SDS011;62004;42.566;23.164;2023-03-08T07:47:50;212.75;;;33.72;;
73697;SDS011;62004;42.566;23.164;2023-03-08T07:50:18;216.93;;;35.65;;
73697;SDS011;62004;42.566;23.164;2023-03-08T07:52:44;220.30;;;35.28;;
73697;SDS011;62004;42.566;23.164;2023-03-08T07:55:10;223.45;;;37.15;;
73697;SDS011;62004;42.566;23.164;2023-03-08T07:57:35;222.23;;;34.60;;
73697;SDS011;62004;42.566;23.164;2023-03-08T08:00:01;220.30;;;34.40;;
73697;SDS011;62004;42.566;23.164;2023-03-08T08:02:26;220.88;;;35.00;;
73697;SDS011;62004;42.566;23.164;2023-03-08T08:04:51;223.70;;;35.23;;
73697;SDS011;62004;42.566;23.164;2023-03-08T08:07:16;221.50;;;36.17;;
73697;SDS011;62004;42.566;23.164;2023-03-08T08:09:42;221.80;;;35.57;;
73697;SDS011;62004;42.566;23.164;2023-03-08T08:12:07;224.18;;;36.03;;
73697;SDS011;62004;42.566;23.164;2023-03-08T08:14:33;223.60;;;35.17;;
73697;SDS011;62004;42.566;23.164;2023-03-08T08:16:58;223.93;;;37.50;;
73697;SDS011;62004;42.566;23.164;2023-03-08T08:19:23;222.87;;;38.23;;
73697;SDS011;62004;42.566;23.164;2023-03-08T08:21:49;224.82;;;35.75;;
73697;SDS011;62004;42.566;23.164;2023-03-08T08:24:14;225.57;;;35.13;;
73697;SDS011;62004;42.566;23.164;2023-03-08T08:26:40;228.13;;;34.40;;
73697;SDS011;62004;42.566;23.164;2023-03-08T08:29:05;228.05;;;36.65;;
73697;SDS011;62004;42.566;23.164;2023-03-08T08:31:31;224.57;;;34.70;;
73697;SDS011;62004;42.566;23.164;2023-03-08T08:33:57;223.23;;;33.92;;
73697;SDS011;62004;42.566;23.164;2023-03-08T08:36:23;222.48;;;36.63;;
73697;SDS011;62004;42.566;23.164;2023-03-08T08:38:48;224.60;;;36.67;;
73697;SDS011;62004;42.566;23.164;2023-03-08T08:41:14;224.18;;;35.78;;
73697;SDS011;62004;42.566;23.164;2023-03-08T08:43:40;223.05;;;34.05;;
73697;SDS011;62004;42.566;23.164;2023-03-08T08:46:06;219.90;;;33.93;;
73697;SDS011;62004;42.566;23.164;2023-03-08T08:48:31;224.82;;;36.50;;
73697;SDS011;62004;42.566;23.164;2023-03-08T08:50:57;219.63;;;34.22;;
73697;SDS011;62004;42.566;23.164;2023-03-08T08:53:22;218.50;;;34.70;;
73697;SDS011;62004;42.566;23.164;2023-03-08T08:55:48;219.77;;;34.40;;
73697;SDS011;62004;42.566;23.164;2023-03-08T08:58:13;214.97;;;33.63;;
73697;SDS011;62004;42.566;23.164;2023-03-08T09:00:39;217.32;;;34.00;;
73697;SDS011;62004;42.566;23.164;2023-03-08T09:03:04;214.15;;;34.47;;
73697;SDS011;62004;42.566;23.164;2023-03-08T09:05:30;215.95;;;34.17;;
73697;SDS011;62004;42.566;23.164;2023-03-08T09:07:56;218.95;;;33.45;;
73697;SDS011;62004;42.566;23.164;2023-03-08T09:10:22;217.70;;;33.80;;
73697;SDS011;62004;42.566;23.164;2023-03-08T09:12:48;218.73;;;34.25;;
73697;SDS011;62004;42.566;23.164;2023-03-08T09:15:13;219.50;;;35.17;;
73697;SDS011;62004;42.566;23.164;2023-03-08T09:17:38;223.43;;;35.27;;
73697;SDS011;62004;42.566;23.164;2023-03-08T09:20:04;220.07;;;35.13;;
73697;SDS011;62004;42.566;23.164;2023-03-08T09:22:30;221.02;;;34.22;;
73697;SDS011;62004;42.566;23.164;2023-03-08T09:24:56;220.90;;;34.78;;
73697;SDS011;62004;42.566;23.164;2023-03-08T09:27:21;219.00;;;32.67;;
73697;SDS011;62004;42.566;23.164;2023-03-08T09:29:46;220.37;;;34.67;;
73697;SDS011;62004;42.566;23.164;2023-03-08T09:32:12;219.93;;;33.67;;
73697;SDS011;62004;42.566;23.164;2023-03-08T09:34:37;220.00;;;33.40;;
73697;SDS011;62004;42.566;23.164;2023-03-08T09:37:02;223.85;;;35.08;;
73697;SDS011;62004;42.566;23.164;2023-03-08T09:39:29;228.75;;;37.60;;
73697;SDS011;62004;42.566;23.164;2023-03-08T09:41:55;228.47;;;36.00;;
73697;SDS011;62004;42.566;23.164;2023-03-08T09:47:07;229.23;;;35.58;;
73697;SDS011;62004;42.566;23.164;2023-03-08T09:49:37;230.50;;;34.67;;
73697;SDS011;62004;42.566;23.164;2023-03-08T09:52:07;229.20;;;35.00;;
73697;SDS011;62004;42.566;23.164;2023-03-08T09:54:34;226.23;;;34.63;;
73697;SDS011;62004;42.566;23.164;2023-03-08T09:57:02;227.73;;;36.85;;
73697;SDS011;62004;42.566;23.164;2023-03-08T09:59:33;225.13;;;34.15;;
73697;SDS011;62004;42.566;23.164;2023-03-08T10:07:06;225.07;;;34.87;;
73697;SDS011;62004;42.566;23.164;2023-03-08T10:09:37;225.23;;;35.80;;
73697;SDS011;62004;42.566;23.164;2023-03-08T10:14:36;224.75;;;36.42;;
73697;SDS011;62004;42.566;23.164;2023-03-08T10:17:04;222.50;;;35.20;;
73697;SDS011;62004;42.566;23.164;2023-03-08T10:21:58;227.00;;;36.10;;
73697;SDS011;62004;42.566;23.164;2023-03-08T10:24:28;224.25;;;34.85;;
73697;SDS011;62004;42.566;23.164;2023-03-08T10:26:59;223.45;;;34.55;;
73697;SDS011;62004;42.566;23.164;2023-03-08T10:29:25;223.60;;;35.45;;
73697;SDS011;62004;42.566;23.164;2023-03-08T10:31:51;225.37;;;34.93;;
73697;SDS011;62004;42.566;23.164;2023-03-08T10:34:17;227.33;;;36.47;;
73697;SDS011;62004;42.566;23.164;2023-03-08T10:37:03;229.60;;;36.58;;
73697;SDS011;62004;42.566;23.164;2023-03-08T10:39:28;228.95;;;34.88;;
73697;SDS011;62004;42.566;23.164;2023-03-08T10:41:55;227.63;;;34.58;;
73697;SDS011;62004;42.566;23.164;2023-03-08T10:46:55;229.32;;;33.92;;
73697;SDS011;62004;42.566;23.164;2023-03-08T10:49:21;230.13;;;35.47;;
73697;SDS011;62004;42.566;23.164;2023-03-08T10:51:54;228.50;;;34.25;;
73697;SDS011;62004;42.566;23.164;2023-03-08T10:54:20;225.30;;;34.85;;
73697;SDS011;62004;42.566;23.164;2023-03-08T10:56:58;225.87;;;34.53;;
73697;SDS011;62004;42.566;23.164;2023-03-08T11:01:56;227.93;;;34.95;;
73697;SDS011;62004;42.566;23.164;2023-03-08T11:04:24;227.88;;;35.08;;
73697;SDS011;62004;42.566;23.164;2023-03-08T11:06:50;228.65;;;34.42;;
73697;SDS011;62004;42.566;23.164;2023-03-08T11:09:26;228.52;;;34.80;;
73697;SDS011;62004;42.566;23.164;2023-03-08T11:11:52;230.73;;;35.22;;
73697;SDS011;62004;42.566;23.164;2023-03-08T11:14:17;232.25;;;36.03;;
73697;SDS011;62004;42.566;23.164;2023-03-08T11:16:44;234.03;;;36.30;;
73697;SDS011;62004;42.566;23.164;2023-03-08T11:34:39;238.60;;;34.83;;
73697;SDS011;62004;42.566;23.164;2023-03-08T11:37:52;231.70;;;36.47;;
73697;SDS011;62004;42.566;23.164;2023-03-08T11:40:13;231.15;;;35.40;;
73697;SDS011;62004;42.566;23.164;2023-03-08T11:50:05;232.95;;;35.28;;
73697;SDS011;62004;42.566;23.164;2023-03-08T11:57:26;231.63;;;35.13;;
73697;SDS011;62004;42.566;23.164;2023-03-08T11:59:59;230.68;;;34.63;;
73697;SDS011;62004;42.566;23.164;2023-03-08T12:02:36;230.77;;;35.58;;
73697;SDS011;62004;42.566;23.164;2023-03-08T12:05:11;232.75;;;35.20;;
73697;SDS011;62004;42.566;23.164;2023-03-08T12:07:40;241.10;;;38.70;;
73697;SDS011;62004;42.566;23.164;2023-03-08T12:12:39;229.97;;;34.40;;
73697;SDS011;62004;42.566;23.164;2023-03-08T12:15:23;231.52;;;34.45;;
73697;SDS011;62004;42.566;23.164;2023-03-08T12:18:00;231.43;;;34.67;;
73697;SDS011;62004;42.566;23.164;2023-03-08T12:20:29;233.25;;;35.42;;
73697;SDS011;62004;42.566;23.164;2023-03-08T12:25:39;234.23;;;35.40;;
73697;SDS011;62004;42.566;23.164;2023-03-08T12:33:27;262.33;;;42.80;;
73697;SDS011;62004;42.566;23.164;2023-03-08T12:36:03;371.25;;;66.78;;
73697;SDS011;62004;42.566;23.164;2023-03-08T12:40:54;554.50;;;136.07;;
73697;SDS011;62004;42.566;23.164;2023-03-08T12:45:45;625.30;;;136.80;;
73697;SDS011;62004;42.566;23.164;2023-03-08T12:48:19;573.92;;;144.70;;
73697;SDS011;62004;42.566;23.164;2023-03-08T12:56:01;574.97;;;144.60;;
73697;SDS011;62004;42.566;23.164;2023-03-08T12:58:27;587.95;;;139.93;;
73697;SDS011;62004;42.566;23.164;2023-03-08T13:01:00;575.88;;;131.10;;
73697;SDS011;62004;42.566;23.164;2023-03-08T13:03:27;535.80;;;126.20;;
73697;SDS011;62004;42.566;23.164;2023-03-08T13:05:53;489.52;;;98.80;;
73697;SDS011;62004;42.566;23.164;2023-03-08T13:13:19;383.05;;;64.53;;
73697;SDS011;62004;42.566;23.164;2023-03-08T13:15:45;365.45;;;65.03;;
73697;SDS011;62004;42.566;23.164;2023-03-08T13:18:17;268.40;;;41.23;;
73697;SDS011;62004;42.566;23.164;2023-03-08T13:20:52;225.93;;;34.78;;
73697;SDS011;62004;42.566;23.164;2023-03-08T13:23:31;222.65;;;34.85;;
73697;SDS011;62004;42.566;23.164;2023-03-08T13:28:34;222.50;;;33.90;;
73697;SDS011;62004;42.566;23.164;2023-03-08T13:31:19;229.90;;;34.78;;
73697;SDS011;62004;42.566;23.164;2023-03-08T13:36:18;232.00;;;34.57;;
73697;SDS011;62004;42.566;23.164;2023-03-08T13:38:52;230.93;;;35.13;;
73697;SDS011;62004;42.566;23.164;2023-03-08T13:41:29;232.02;;;36.53;;
73697;SDS011;62004;42.566;23.164;2023-03-08T13:43:58;230.90;;;37.63;;
73697;SDS011;62004;42.566;23.164;2023-03-08T13:46:24;227.45;;;35.33;;
73697;SDS011;62004;42.566;23.164;2023-03-08T13:48:49;230.17;;;34.73;;
73697;SDS011;62004;42.566;23.164;2023-03-08T13:51:15;228.47;;;35.93;;
73697;SDS011;62004;42.566;23.164;2023-03-08T13:53:41;231.00;;;35.17;;
73697;SDS011;62004;42.566;23.164;2023-03-08T13:56:07;233.15;;;35.83;;
73697;SDS011;62004;42.566;23.164;2023-03-08T14:03:35;234.90;;;36.55;;
73697;SDS011;62004;42.566;23.164;2023-03-08T14:06:00;240.02;;;36.13;;
73697;SDS011;62004;42.566;23.164;2023-03-08T14:08:26;231.17;;;35.30;;
73697;SDS011;62004;42.566;23.164;2023-03-08T14:10:58;231.85;;;36.20;;
73697;SDS011;62004;42.566;23.164;2023-03-08T14:15:57;230.50;;;34.47;;
73697;SDS011;62004;42.566;23.164;2023-03-08T14:18:24;229.95;;;34.90;;
73697;SDS011;62004;42.566;23.164;2023-03-08T14:21:01;230.77;;;35.83;;
73697;SDS011;62004;42.566;23.164;2023-03-08T14:23:27;234.57;;;34.25;;
73697;SDS011;62004;42.566;23.164;2023-03-08T14:25:56;229.85;;;36.83;;
73697;SDS011;62004;42.566;23.164;2023-03-08T14:28:34;229.35;;;35.58;;
73697;SDS011;62004;42.566;23.164;2023-03-08T14:31:00;227.68;;;34.17;;
73697;SDS011;62004;42.566;23.164;2023-03-08T14:33:25;227.53;;;35.87;;
73697;SDS011;62004;42.566;23.164;2023-03-08T14:35:53;228.27;;;35.88;;
73697;SDS011;62004;42.566;23.164;2023-03-08T14:38:23;225.43;;;34.95;;
73697;SDS011;62004;42.566;23.164;2023-03-08T14:40:48;225.07;;;34.50;;
73697;SDS011;62004;42.566;23.164;2023-03-08T14:43:15;228.57;;;35.63;;
73697;SDS011;62004;42.566;23.164;2023-03-08T14:45:41;227.35;;;36.08;;
73697;SDS011;62004;42.566;23.164;2023-03-08T14:50:58;229.30;;;37.33;;
73697;SDS011;62004;42.566;23.164;2023-03-08T14:53:31;232.70;;;35.47;;
73697;SDS011;62004;42.566;23.164;2023-03-08T14:55:57;230.45;;;35.67;;
73697;SDS011;62004;42.566;23.164;2023-03-08T14:58:30;229.73;;;35.20;;
73697;SDS011;62004;42.566;23.164;2023-03-08T15:00:57;231.00;;;35.53;;
73697;SDS011;62004;42.566;23.164;2023-03-08T15:03:22;228.95;;;34.25;;
73697;SDS011;62004;42.566;23.164;2023-03-08T15:05:49;229.02;;;34.85;;
73697;SDS011;62004;42.566;23.164;2023-03-08T15:08:14;228.00;;;36.80;;
73697;SDS011;62004;42.566;23.164;2023-03-08T15:10:40;226.88;;;34.40;;
73697;SDS011;62004;42.566;23.164;2023-03-08T15:13:10;226.82;;;32.85;;
73697;SDS011;62004;42.566;23.164;2023-03-08T15:18:01;227.57;;;35.77;;
73697;SDS011;62004;42.566;23.164;2023-03-08T15:20:26;227.10;;;35.87;;
73697;SDS011;62004;42.566;23.164;2023-03-08T15:22:53;225.40;;;33.72;;
73697;SDS011;62004;42.566;23.164;2023-03-08T15:25:26;224.60;;;33.80;;